Date,TemperatureHighF,TemperatureAvgF,TemperatureLowF,DewpointHighF,DewpointAvgF,DewpointLowF,HumidityHigh,HumidityAvg,HumidityLow,PressureMaxIn,PressureMinIn,WindSpeedMaxMPH,WindSpeedAvgMPH,GustSpeedMaxMPH,PrecipitationSumIn
2013-1-1,47,44,39,41,38,32,94,81,55,30.14,30.00,18,5,18,0.08
2013-1-2,40,36,31,36,30,22,96,80,62,30.33,30.10,16,5,16,0.11
2013-1-3,36,31,25,26,23,20,92,73,55,30.37,30.27,12,3,12,0.00
2013-1-4,41,33,24,34,28,23,98,83,60,30.34,30.22,12,2,12,0.00
2013-1-5,44,38,30,32,29,27,90,73,55,30.48,30.28,17,5,17,0.00
2013-1-6,49,41,32,41,36,31,97,85,68,30.36,30.15,14,3,14,0.02
2013-1-7,49,40,29,38,33,28,97,79,54,30.56,30.23,20,4,20,0.00
2013-1-8,56,40,28,44,36,27,99,86,58,30.59,30.49,12,1,12,0.00
2013-1-9,65,52,36,55,47,35,99,84,67,30.52,30.35,18,4,18,0.00
2013-1-10,55,46,37,45,37,32,96,71,46,30.67,30.47,16,4,16,0.00
2013-1-11,56,45,31,55,44,30,99,94,80,30.62,30.20,13,4,13,0.07
2013-1-12,53,47,42,52,46,42,99,99,96,30.28,30.20,13,3,13,0.00
2013-1-13,61,50,42,60,50,42,100,100,96,30.27,30.14,12,5,12,0.01
2013-1-14,67,59,46,62,57,46,99,92,84,30.32,30.12,20,7,20,0.63
2013-1-15,46,43,41,46,43,41,100,99,99,30.39,30.20,15,5,15,0.54
2013-1-16,50,43,39,50,43,38,100,100,99,30.20,29.99,27,5,27,0.33
2013-1-17,44,41,33,44,41,32,100,100,98,30.24,30.07,13,3,13,0.97
2013-1-18,39,33,25,35,29,23,100,87,56,30.65,30.13,20,5,20,0.16
2013-1-19,53,41,26,39,31,24,96,70,35,30.61,30.18,17,6,17,0.01
2013-1-20,58,49,35,40,35,26,76,59,49,30.18,29.96,26,11,26,0.00
2013-1-21,48,38,27,42,31,22,94,77,58,30.22,29.87,26,5,26,0.00
2013-1-22,33,26,17,27,13,6,80,58,41,30.41,30.01,30,12,30,0.00
2013-1-23,27,21,10,17,10,6,86,65,47,30.46,30.26,21,4,21,0.00
2013-1-24,26,22,16,20,13,6,93,70,51,30.62,30.14,29,9,29,0.00
2013-1-25,28,21,10,26,15,6,95,79,51,30.63,30.19,13,2,13,0.00
2013-1-26,35,27,16,23,20,14,96,76,58,30.55,30.19,26,7,26,0.00
2013-1-27,35,24,12,23,18,10,93,78,57,30.71,30.54,12,2,12,0.00
2013-1-28,50,39,24,46,34,21,93,83,67,30.65,30.22,22,7,22,0.02
2013-1-29,65,53,48,55,48,45,93,85,68,30.25,30.17,20,7,20,0.00
2013-1-30,70,59,50,63,56,49,99,91,78,30.18,29.57,34,12,34,0.00
2013-1-31,61,50,38,60,38,21,98,66,44,30.05,29.38,36,16,36,0.10
2013-2-1,42,32,24,32,20,10,85,61,43,30.47,29.90,35,14,35,0.00
2013-2-2,35,28,18,24,16,11,81,62,46,30.51,30.12,15,4,15,0.00
2013-2-3,39,33,26,30,27,23,93,76,61,30.12,29.94,21,4,21,0.00
2013-2-4,40,33,28,31,22,15,91,65,53,30.23,30.02,20,8,20,0.00
2013-2-5,48,43,36,38,34,30,94,72,58,30.07,29.95,18,4,18,0.00
2013-2-6,50,38,27,39,33,26,98,86,60,30.46,30.02,15,3,15,0.00
2013-2-7,46,36,25,43,33,24,97,89,67,30.54,30.27,15,4,15,0.02
2013-2-8,48,44,40,48,42,31,99,96,71,30.27,29.68,28,11,28,1.92
2013-2-9,40,35,30,32,25,22,81,68,57,30.47,29.95,37,17,37,0.00
2013-2-10,43,34,22,39,26,16,90,74,56,30.61,30.43,9,4,9,0.00
2013-2-11,61,54,43,59,52,39,98,92,80,30.43,29.87,25,10,25,0.08
2013-2-12,57,49,38,51,39,31,97,71,41,30.11,29.89,17,4,17,0.00
2013-2-13,48,45,39,45,42,37,98,89,72,30.06,29.68,17,6,17,0.24
2013-2-14,47,40,33,39,36,32,98,87,60,30.18,29.82,15,5,15,0.00
2013-2-15,57,44,32,46,39,30,99,81,51,30.18,30.04,20,5,20,0.01
2013-2-16,45,37,30,39,35,29,98,93,78,30.08,29.86,17,7,17,0.18
2013-2-17,33,30,28,30,20,10,97,67,43,30.28,29.85,29,14,29,0.00
2013-2-18,39,31,26,30,18,13,77,58,40,30.49,30.28,25,10,25,0.00
2013-2-19,53,46,36,51,41,29,96,84,70,30.37,29.87,23,9,23,0.05
2013-2-20,44,36,29,41,27,17,96,71,50,30.24,29.95,24,7,24,0.00
2013-2-21,38,32,26,24,20,16,71,63,52,30.39,30.22,29,12,29,0.00
2013-2-22,41,36,30,40,30,21,96,81,63,30.50,30.30,15,4,15,0.04
2013-2-23,53,46,41,52,45,40,99,98,94,30.30,29.88,18,6,18,0.53
2013-2-24,51,44,35,45,39,26,99,85,60,30.18,29.86,22,8,22,0.02
2013-2-25,45,35,27,33,28,25,96,76,54,30.35,30.18,15,4,15,0.00
2013-2-26,57,42,27,57,41,26,100,94,83,30.33,29.66,33,10,33,0.24
2013-2-27,57,51,43,57,48,39,100,89,66,29.80,29.63,21,7,21,0.00
2013-2-28,47,42,37,43,38,32,98,84,59,29.83,29.73,18,5,18,0.00
2013-3-1,46,42,39,37,35,33,84,75,64,29.96,29.82,18,7,18,0.00
2013-3-2,42,38,34,34,30,26,86,73,63,29.97,29.89,17,8,17,0.00
2013-3-3,40,35,31,28,26,23,82,70,55,29.98,29.87,27,10,27,0.00
2013-3-4,42,36,31,29,25,22,74,64,53,30.13,29.98,26,12,26,0.00
2013-3-5,46,38,29,36,29,23,93,71,47,30.19,29.88,20,6,20,0.12
2013-3-6,47,40,34,46,40,34,99,98,92,29.92,29.39,37,17,37,1.53
2013-3-7,48,42,36,36,34,30,99,72,56,30.19,29.92,30,16,30,0.00
2013-3-8,45,41,36,34,30,25,75,65,59,30.29,30.16,33,17,33,0.00
2013-3-9,58,43,31,40,31,27,92,63,34,30.41,30.29,17,7,17,0.00
2013-3-10,52,40,26,45,36,24,99,89,64,30.45,30.39,13,4,13,0.00
2013-3-11,59,50,37,54,47,37,99,90,80,30.41,30.15,20,8,20,0.01
2013-3-12,59,53,47,59,52,41,99,93,79,30.16,29.84,27,12,27,0.30
2013-3-13,51,44,33,41,35,27,95,72,50,30.13,30.00,26,8,26,0.00
2013-3-14,46,40,35,28,25,21,67,55,41,30.22,30.11,26,14,26,0.00
2013-3-15,53,44,34,39,30,23,81,60,33,30.22,29.92,18,7,18,0.00
2013-3-16,55,48,39,52,44,37,98,84,53,29.96,29.73,20,5,20,0.24
2013-3-17,41,38,34,39,36,33,96,94,90,30.37,29.96,12,3,12,0.22
2013-3-18,50,40,33,49,39,33,99,98,96,30.41,29.96,17,6,17,0.68
2013-3-19,54,44,38,45,42,35,99,91,62,30.02,29.86,20,5,20,0.01
2013-3-20,53,44,28,35,28,18,90,56,29,30.14,29.90,18,7,18,0.00
2013-3-21,42,39,35,36,34,29,93,81,72,29.90,29.79,20,6,20,0.00
2013-3-31,60,55,50,54,52,50,100,93,76,29.93,29.90,7,2,11,0.00
2013-4-1,67,51,29,51,38,26,100,63,43,30.17,29.82,12,4,23,0.01
2013-4-2,55,43,31,49,29,23,99,60,34,30.28,29.88,23,4,20,0.00
2013-4-3,52,40,26,33,24,18,93,57,29,30.47,30.28,23,5,23,0.00
2013-4-4,46,38,25,38,27,19,94,66,44,30.53,30.18,13,4,13,0.10
2013-4-5,59,46,39,48,41,36,98,85,44,30.19,29.92,20,7,20,0.82
2013-4-6,51,44,36,41,33,29,96,67,48,30.45,30.10,16,6,16,0.00
2013-4-7,60,50,34,50,44,33,97,80,68,30.44,30.16,20,7,20,0.00
2013-4-8,76,64,55,62,56,50,88,76,52,30.22,30.13,17,8,17,0.00
2013-4-9,82,70,63,63,59,57,85,70,44,30.21,30.10,16,8,16,0.00
2013-4-10,88,75,67,69,63,59,78,66,41,30.11,29.94,18,8,18,0.00
2013-4-11,81,71,61,68,62,58,91,75,57,30.01,29.91,20,9,20,0.00
2013-4-12,74,66,58,68,63,57,99,93,82,29.92,29.69,23,8,23,0.14
2013-4-13,67,56,49,65,48,44,97,78,56,30.06,29.72,26,9,26,0.12
2013-4-14,68,58,46,54,47,36,98,70,34,30.27,30.06,17,5,17,0.00
2013-4-15,61,56,53,53,50,48,91,82,73,30.41,30.25,23,9,23,0.00
2013-4-16,69,61,51,60,55,49,94,82,69,30.43,30.31,18,8,18,0.00
2013-4-17,77,64,56,66,59,54,96,85,63,30.35,30.25,18,7,18,0.00
2013-4-18,73,63,56,64,60,55,97,89,70,30.37,30.19,16,7,16,0.00
2013-4-19,76,66,59,69,64,58,97,91,75,30.19,29.85,28,11,28,0.23
2013-4-20,66,54,44,65,45,33,99,76,47,30.41,29.87,24,8,24,0.43
2013-4-21,53,46,38,42,35,31,97,68,45,30.69,30.41,20,7,20,0.00
2013-4-22,54,46,35,47,42,33,96,85,74,30.68,30.43,24,8,24,0.00
2013-4-23,57,50,42,50,47,41,97,89,74,30.43,30.23,20,7,20,0.00
2013-4-24,65,54,40,59,51,39,99,90,78,30.26,30.02,20,7,20,0.00
2013-4-25,65,55,40,60,46,38,96,72,44,30.41,30.06,23,8,23,0.00
2013-4-26,66,54,37,53,42,36,99,68,41,30.53,30.40,14,4,14,0.00
2013-4-27,67,53,40,55,43,34,98,72,33,30.53,30.42,16,4,16,0.00
2013-4-28,64,54,38,53,43,36,98,71,38,30.43,30.28,15,4,15,0.00
2013-4-29,58,56,54,57,55,53,100,98,86,30.29,30.16,20,8,20,1.66
2013-4-30,60,57,55,59,56,54,100,98,92,30.32,30.16,17,7,17,0.29
2013-5-1,63,57,51,55,52,47,95,83,59,30.50,30.32,28,8,28,0.00
2013-5-2,65,55,46,56,51,45,98,86,64,30.51,30.42,20,6,20,0.00
2013-5-3,58,52,45,51,47,43,99,83,66,30.47,30.39,25,8,25,0.00
2013-5-4,61,54,45,54,49,43,97,84,69,30.41,30.30,22,8,22,0.00
2013-5-5,59,53,44,52,49,43,96,85,74,30.30,30.24,22,8,22,0.00
2013-5-6,65,58,53,62,57,51,98,95,85,30.25,30.14,20,9,20,0.03
2013-5-7,67,62,57,64,60,56,98,95,86,30.15,30.02,20,9,20,0.52
2013-5-8,71,60,49,60,56,49,99,87,63,30.13,30.05,15,5,15,0.07
2013-5-9,74,61,58,64,59,57,99,92,64,30.12,30.02,13,4,13,0.01
2013-5-10,84,70,56,68,61,55,99,76,45,30.13,30.03,20,5,20,0.00
2013-5-11,82,71,65,70,66,63,97,84,60,30.04,29.84,24,7,24,0.19
2013-5-12,71,63,45,67,54,41,97,75,43,30.13,29.81,26,6,26,0.05
2013-5-13,62,53,39,49,38,31,95,59,35,30.25,30.12,20,5,20,0.00
2013-5-14,63,51,34,50,38,31,97,66,37,30.31,30.21,20,5,20,0.00
2013-5-15,82,69,56,66,59,50,90,72,54,30.23,29.86,26,8,26,0.00
2013-5-16,87,79,70,66,64,58,80,62,39,30.00,29.86,25,9,25,0.00
2013-5-17,78,69,59,64,57,46,92,68,39,30.27,30.00,13,4,13,0.00
2013-5-18,65,62,61,62,59,54,100,91,68,30.35,30.27,14,6,14,0.15
2013-5-19,75,66,62,70,65,61,100,95,83,30.30,30.22,15,6,15,0.05
2013-5-20,81,71,66,73,68,65,99,90,72,30.26,30.12,15,5,15,0.03
2013-5-21,81,73,67,72,69,66,98,88,69,30.15,30.02,17,6,17,0.01
2013-5-22,85,75,70,73,70,68,95,84,64,30.09,30.01,22,9,22,0.00
2013-5-23,76,70,66,72,68,65,99,95,87,30.07,29.88,17,8,17,0.14
2013-5-24,70,62,54,68,58,44,99,87,66,30.18,29.83,28,11,28,0.06
2013-5-25,65,57,49,46,43,40,78,61,42,30.24,30.17,30,12,30,0.00
2013-5-26,71,61,49,48,44,39,88,56,34,30.32,30.22,20,7,20,0.00
2013-5-27,76,64,47,60,52,46,99,69,39,30.37,30.29,14,4,14,0.00
2013-5-28,68,68,67,64,63,62,89,84,80,30.27,30.24,255,10,255,0.00
2013-5-29,87,76,68,72,68,64,91,75,56,30.27,30.22,18,7,18,0.00
2013-5-30,88,78,69,73,69,65,91,75,55,30.33,30.25,16,7,16,0.00
2013-5-31,89,78,70,74,70,66,96,78,48,30.31,30.19,18,6,18,0.00
2013-6-1,88,78,72,75,71,69,93,79,54,30.21,30.10,20,8,20,0.00
2013-6-2,88,79,72,72,69,65,87,72,49,30.11,29.99,21,8,21,0.00
2013-6-3,77,71,67,74,70,66,99,95,86,30.02,29.91,14,3,14,0.38
2013-6-4,74,68,54,70,60,50,99,78,45,30.24,30.01,13,4,13,0.00
2013-6-5,77,66,52,67,57,51,99,78,46,30.29,30.21,12,3,12,0.00
2013-6-6,76,68,57,67,64,56,99,88,69,30.23,30.01,17,6,17,0.01
2013-6-7,77,71,69,75,70,67,100,97,90,30.01,29.58,27,9,27,1.40
2013-6-8,80,71,63,72,68,63,100,91,72,30.20,29.76,22,5,22,0.48
2013-6-9,79,71,60,73,67,60,100,89,71,30.30,30.20,14,4,14,0.01
2013-6-10,81,74,71,76,72,70,100,95,82,30.23,29.98,20,7,20,0.23
2013-6-11,82,77,72,73,71,68,99,84,66,29.98,29.88,18,8,18,0.00
2013-6-12,88,79,71,76,71,68,95,78,57,29.98,29.90,21,5,21,0.00
2013-6-13,92,76,67,79,72,64,100,88,59,29.98,29.59,30,8,30,1.12
2013-6-14,74,67,61,65,60,56,92,77,59,30.06,29.67,21,9,21,0.00
2013-6-15,80,71,59,68,63,58,99,76,50,30.17,30.05,12,4,12,0.00
2013-6-16,85,77,66,73,69,64,95,77,64,30.15,30.01,20,7,20,0.00
2013-6-17,82,75,70,74,71,67,97,87,72,30.10,30.02,16,4,16,0.06
2013-6-18,76,71,64,74,70,64,100,96,90,30.06,29.86,21,4,21,1.22
2013-6-19,72,67,60,68,64,60,100,92,73,30.27,29.93,13,4,13,0.00
2013-6-20,75,66,54,64,56,49,100,76,44,30.39,30.27,16,5,16,0.00
2013-6-21,77,68,55,69,63,54,99,86,70,30.40,30.36,14,5,14,0.01
2013-6-22,81,72,60,72,66,60,99,83,64,30.36,30.28,12,4,12,0.00
2013-6-23,82,76,67,77,73,64,98,90,81,30.32,30.21,18,6,18,0.00
2013-6-24,88,80,73,78,75,72,98,83,63,30.26,30.13,13,5,13,0.00
2013-6-25,88,81,75,78,75,71,97,84,58,30.17,30.02,15,5,15,0.00
2013-6-26,89,81,75,79,76,73,95,85,68,30.04,29.92,15,5,15,0.02
2013-6-27,88,79,72,79,74,70,96,84,65,29.95,29.76,20,7,20,0.28
2013-6-28,90,80,74,77,75,70,98,86,62,29.77,29.62,13,5,13,0.06
2013-6-29,86,76,71,77,73,69,99,91,67,29.84,29.64,18,5,18,0.08
2013-6-30,83,77,73,77,74,71,98,92,81,30.00,29.84,17,6,17,0.01
2013-7-1,82,76,73,78,74,72,98,94,84,30.17,30.00,20,9,20,0.65
2013-7-2,84,75,70,78,73,69,100,94,82,30.33,30.16,20,6,20,0.22
2013-7-3,84,77,70,80,75,70,100,94,81,30.37,30.30,18,7,18,0.17
2013-7-4,85,79,73,79,75,73,99,89,77,30.40,30.33,15,7,15,0.00
2013-7-5,89,80,72,80,75,71,99,85,68,30.38,30.29,14,5,14,0.00
2013-7-14,79,76,73,76,74,72,98,96,91,30.41,30.40,10,1,10,0.00
2013-7-15,88,79,68,79,75,68,100,88,63,30.42,30.29,12,3,12,0.01
2013-7-16,93,82,73,82,78,72,97,86,68,30.30,30.24,12,2,12,0.00
2013-7-17,93,81,70,82,75,70,100,84,58,30.29,30.20,10,2,10,0.00
2013-7-18,93,83,72,81,76,71,100,82,56,30.22,30.12,9,3,9,0.00
2013-7-19,94,85,75,82,78,74,98,80,60,30.15,30.01,15,4,15,0.00
2013-7-20,90,84,80,82,78,76,89,81,72,30.04,29.94,20,8,20,0.00
2013-7-21,88,81,74,81,77,74,98,87,78,30.06,29.98,16,4,16,0.11
2013-7-22,88,78,72,80,76,71,100,93,72,30.03,29.89,12,3,12,0.02
2013-7-23,86,80,74,79,76,74,99,89,73,29.90,29.75,15,5,15,0.02
2013-7-24,90,79,71,81,74,70,100,87,64,29.96,29.77,16,2,16,0.00
2013-7-25,77,70,65,72,68,65,99,92,83,30.10,29.93,14,6,14,0.18
2013-7-26,80,71,66,71,67,64,97,87,72,30.19,30.09,12,4,12,0.00
2013-7-27,84,73,62,73,67,62,100,84,54,30.19,30.06,12,3,12,0.01
2013-7-28,84,76,68,78,73,67,99,91,78,30.10,30.01,15,5,15,0.33
2013-7-29,85,74,63,73,68,62,100,84,53,30.25,30.06,12,3,12,0.24
2013-7-30,84,71,59,69,63,58,100,79,49,30.32,30.25,10,2,10,0.00
2013-7-31,82,72,60,73,66,59,100,84,58,30.26,30.15,12,2,12,0.00
2013-8-1,80,74,72,74,71,69,98,91,81,30.15,29.92,23,7,23,0.05
2013-8-2,87,78,71,75,72,67,99,83,53,30.07,29.94,12,4,12,0.00
2013-8-3,87,75,68,75,72,67,99,89,55,30.07,30.00,17,2,17,0.03
2013-8-4,82,73,60,71,65,58,99,79,47,30.11,29.97,16,4,16,0.01
2013-8-5,79,68,57,66,61,56,99,80,54,30.20,30.11,10,3,10,0.00
2013-8-6,69,67,63,68,66,62,100,98,95,30.22,30.13,13,3,13,0.63
2013-8-7,82,75,68,75,71,68,100,90,74,30.22,30.16,18,6,18,0.01
2013-8-8,84,78,73,77,74,71,97,89,77,30.19,30.12,16,7,16,0.00
2013-8-9,90,82,76,80,77,74,98,85,70,30.13,29.97,20,6,20,0.17
2013-8-10,87,78,70,78,74,70,99,87,61,30.18,30.06,13,3,13,0.41
2013-8-11,82,74,65,74,70,65,100,89,64,30.22,30.13,9,2,9,0.00
2013-8-12,88,78,70,80,76,70,100,91,74,30.13,30.03,9,2,9,0.00
2013-8-13,86,79,72,80,75,72,100,89,68,30.03,29.86,20,4,20,0.00
2013-8-14,75,70,57,73,61,52,98,76,53,30.19,29.85,21,7,21,0.00
2013-8-15,78,64,53,65,59,52,99,84,57,30.27,30.17,9,1,9,0.00
2013-8-16,78,65,51,65,59,51,100,82,59,30.28,30.22,17,3,17,0.00
2013-8-17,78,70,62,70,66,60,95,85,71,30.33,30.26,17,5,17,0.01
2013-8-18,73,69,64,72,68,64,99,96,88,30.30,30.23,14,4,14,0.63
2013-8-19,75,68,62,71,67,62,100,94,81,30.28,30.19,8,1,8,0.04
2013-8-20,82,74,66,75,70,65,99,91,74,30.29,30.20,7,1,7,0.00
2013-8-21,86,75,65,78,71,64,100,90,70,30.32,30.21,12,3,12,0.00
2013-8-22,86,77,70,79,74,70,100,91,66,30.22,30.05,12,3,12,0.24
2013-8-23,84,74,68,75,71,67,100,92,71,30.18,30.01,10,1,10,0.09
2013-8-24,81,70,60,69,65,59,98,85,62,30.43,30.18,16,4,16,0.01
2013-8-25,78,66,54,65,58,53,100,81,51,30.50,30.40,13,3,13,0.00
2013-8-26,80,62,51,69,58,51,100,88,57,30.42,30.28,10,2,10,0.00
2013-9-12,82,75,68,75,72,68,99,90,78,29.93,29.85,23,7,23,0.90
2013-9-13,79,72,61,74,66,58,100,84,55,29.97,29.78,20,5,20,0.11
2013-9-14,71,62,50,58,54,49,97,77,54,30.26,29.97,16,4,16,0.00
2013-9-15,75,62,46,64,56,46,99,81,56,30.34,30.23,12,3,12,0.00
2013-9-16,78,68,55,71,64,54,98,88,72,30.29,30.15,14,4,14,0.00
2013-9-17,69,60,50,57,54,48,98,81,61,30.46,30.29,20,6,20,0.00
2013-9-19,75,60,47,68,55,47,100,83,57,30.24,30.15,6,1,12,0.00
2013-9-20,75,59,49,70,56,49,100,89,61,30.15,30.01,6,1,10,0.00
2013-9-21,79,75,70,71,69,64,99,84,64,30.00,29.83,18,8,18,0.40
2013-9-22,76,67,54,68,62,52,100,86,57,30.00,29.81,15,4,15,0.17
2013-9-23,67,56,46,54,49,45,97,79,56,30.17,30.00,18,4,18,0.00
2013-9-24,70,55,42,56,49,42,99,82,53,30.20,30.05,20,4,20,0.00
2013-9-25,75,60,47,63,54,47,100,84,49,30.07,29.98,12,2,12,0.00
2013-9-26,75,64,55,64,59,54,99,86,61,30.16,30.00,17,3,17,0.00
2013-9-27,74,62,52,62,56,51,99,83,53,30.32,30.16,18,3,18,0.01
2013-9-28,72,62,53,62,57,51,96,84,64,30.36,30.28,20,4,20,0.00
2013-9-29,74,62,53,65,57,51,98,84,63,30.28,30.14,17,5,17,0.00
2013-9-30,75,60,48,61,55,46,97,84,56,30.17,30.08,13,3,13,0.00
2013-10-1,78,63,50,64,58,49,100,83,56,30.19,30.08,13,3,13,0.00
2013-10-2,82,70,60,69,64,59,99,83,54,30.18,30.11,13,3,13,0.00
2013-10-3,86,71,58,71,64,57,99,82,50,30.21,30.15,9,2,9,0.00
2013-10-4,84,72,64,71,66,62,99,84,55,30.19,30.12,9,2,9,0.00
2013-10-5,87,74,62,73,67,62,100,81,54,30.19,30.12,10,3,10,0.00
2013-10-6,87,75,67,72,69,65,97,84,58,30.16,30.09,16,5,16,0.00
2013-10-7,81,72,62,74,70,59,98,91,78,30.12,29.95,24,9,24,0.87
2013-10-8,64,60,57,59,55,50,90,81,68,30.34,30.12,13,6,13,0.00
2013-10-9,64,62,58,61,59,54,99,90,78,30.31,30.15,24,9,24,1.69
2013-10-10,69,66,62,69,66,61,100,100,99,30.16,29.94,23,8,23,0.75
2013-10-11,73,69,67,73,69,66,100,98,90,30.01,29.91,12,2,12,0.33
2013-10-12,70,67,65,69,67,64,100,98,94,30.18,29.99,15,5,15,0.20
2013-10-13,68,66,64,68,65,61,100,95,89,30.36,30.17,21,8,21,0.71
2013-10-14,70,63,55,64,60,54,98,90,76,30.38,30.30,21,6,21,0.00
2013-10-15,70,62,54,64,60,54,99,94,81,30.31,30.17,21,5,21,0.01
2013-10-16,74,65,61,67,63,60,100,93,77,30.17,30.05,9,2,9,0.00
2013-10-17,74,67,61,69,65,60,100,95,79,30.05,29.90,12,3,12,0.01
2013-10-18,71,61,48,67,53,47,97,76,55,30.14,29.90,20,6,20,0.00
2013-10-19,66,59,47,65,57,46,99,94,79,30.12,29.92,12,2,12,0.04
2013-10-20,64,55,41,64,47,40,98,76,49,30.23,29.94,16,6,16,0.00
2013-10-21,66,52,38,58,46,38,100,84,52,30.28,30.11,15,2,15,0.00
2013-10-22,67,58,49,59,54,49,100,90,71,30.11,29.92,12,2,12,0.00
2013-10-23,56,52,46,54,48,42,96,86,74,29.99,29.74,14,4,14,0.03
2013-10-24,54,48,36,44,39,34,95,73,48,30.25,29.99,22,5,22,0.02
2013-10-25,55,43,34,42,37,32,97,81,55,30.43,30.24,23,4,23,0.00
2013-10-26,60,46,30,46,37,29,99,75,44,30.43,30.11,20,4,20,0.00
2013-10-27,61,51,38,46,41,37,95,71,48,30.26,30.08,16,4,16,0.00
2013-10-28,69,51,37,58,47,36,100,87,58,30.37,30.25,8,1,8,0.00
2013-10-29,68,53,42,58,49,41,99,89,61,30.45,30.36,12,2,12,0.00
2013-10-30,67,58,47,61,54,46,100,89,70,30.43,30.28,9,2,9,0.01
2013-10-31,74,66,58,66,61,56,96,87,66,30.31,30.02,16,6,16,0.00
2013-11-1,73,69,67,68,66,64,97,90,81,30.02,29.75,22,9,22,0.07
2013-11-2,70,65,56,67,62,47,100,89,55,29.96,29.72,21,4,21,0.18
2013-11-3,57,51,37,48,42,33,87,72,54,30.50,29.96,20,8,20,0.00
2013-11-4,52,42,33,40,35,28,90,77,55,30.69,30.50,17,6,17,0.00
2013-11-5,63,51,40,53,46,37,98,84,66,30.67,30.57,15,4,15,0.00
2013-11-6,66,56,41,62,53,40,99,89,67,30.57,30.22,16,3,16,0.00
2013-11-7,65,60,47,64,57,40,99,92,70,30.22,29.93,27,7,27,0.20
2013-11-8,52,44,32,40,33,30,92,68,46,30.42,30.13,28,7,28,0.00
2013-11-9,55,43,29,42,35,28,98,77,46,30.48,30.19,13,3,13,0.00
2013-11-10,65,54,45,46,41,34,82,62,46,30.32,30.04,22,8,22,0.00
2013-11-11,55,47,40,43,38,33,91,71,53,30.41,30.20,12,4,12,0.00
2013-11-12,53,44,36,44,33,19,89,68,49,30.46,30.08,26,9,26,0.00
2013-11-13,42,34,26,28,23,19,90,65,45,30.55,30.45,23,7,23,0.00
2013-11-14,56,41,25,35,28,22,96,66,27,30.52,30.40,17,4,17,0.00
2013-11-15,59,50,39,49,37,28,84,64,34,30.42,30.33,20,4,20,0.00
2013-11-16,62,55,48,57,51,47,98,87,67,30.43,30.33,13,3,13,0.00
2013-11-17,69,57,48,64,56,47,100,96,80,30.34,29.95,14,3,14,0.00
2013-11-18,68,60,45,67,54,38,100,84,54,29.98,29.83,24,5,24,0.05
2013-11-19,52,46,38,39,34,30,75,63,52,30.44,29.98,23,9,23,0.00
2013-11-20,51,40,34,40,34,28,95,78,65,30.63,30.43,16,5,16,0.00
2013-11-21,59,46,33,52,44,32,98,90,77,30.63,30.51,20,3,20,0.00
2013-11-22,64,56,41,61,54,40,100,92,80,30.50,30.09,17,4,17,0.07
2013-11-23,60,48,34,60,40,24,99,76,50,30.21,30.09,27,8,27,0.00
2013-11-24,38,31,28,27,14,10,64,49,39,30.61,30.22,36,19,36,0.00
2013-11-25,37,30,22,26,20,15,78,66,47,30.71,30.49,15,4,15,0.00
2013-11-26,60,46,36,60,41,24,100,81,53,30.51,29.71,23,6,23,0.30
2013-11-27,64,46,35,64,44,24,100,94,65,30.12,29.52,36,15,36,0.57
2013-11-28,38,32,23,26,22,19,91,68,53,30.62,30.12,26,9,26,0.00
2013-11-29,44,32,22,34,26,20,98,77,50,30.81,30.59,15,4,15,0.00
2013-11-30,48,38,30,40,32,24,96,80,67,30.79,30.47,16,4,16,0.00
2013-12-1,49,36,28,40,33,27,98,89,64,30.47,30.14,9,1,9,0.00
2013-12-2,56,38,27,46,36,26,100,91,70,30.14,29.95,12,2,12,0.00
2013-12-3,55,43,31,46,38,30,99,85,51,30.13,29.96,10,2,10,0.01
2013-12-4,60,52,39,56,50,38,99,92,82,30.22,30.12,12,2,12,0.01
2013-12-5,64,57,48,62,56,48,100,97,91,30.24,30.11,12,3,12,0.01
2013-12-6,70,60,47,66,58,47,98,93,82,30.17,30.07,20,6,20,0.00
2013-12-7,47,40,31,47,37,29,98,91,74,30.62,30.15,20,7,20,0.36
2013-12-8,46,36,32,46,34,29,99,93,81,30.65,30.30,18,5,18,0.43
2013-12-9,43,40,38,43,40,37,99,99,98,30.31,30.15,12,4,12,0.65
2013-12-10,41,37,32,41,36,30,99,97,92,30.36,30.03,17,4,17,0.38
2013-12-11,45,33,26,36,30,26,99,88,59,30.53,30.36,9,1,9,0.00
2013-12-12,34,28,19,31,22,17,98,77,53,30.50,30.34,21,5,21,0.00
2013-12-13,43,32,20,28,25,17,95,76,51,30.44,30.35,15,3,15,0.00
2013-12-14,59,44,30,59,41,27,100,90,74,30.45,29.76,26,5,26,0.98
2013-12-15,58,41,29,58,39,28,100,95,73,30.09,29.73,21,6,21,0.02
2013-12-16,44,36,27,36,32,26,99,86,64,30.32,30.07,13,2,13,0.01
2013-12-17,57,46,39,43,41,36,96,84,56,30.28,30.00,15,5,15,0.32
2013-12-18,41,35,28,38,31,26,98,86,62,30.36,30.02,22,6,22,0.03
2013-12-19,57,46,33,35,32,30,91,61,40,30.36,30.25,21,7,21,0.00
2013-12-20,63,57,51,56,47,33,90,70,47,30.31,30.18,24,8,24,0.00
2013-12-21,69,61,49,62,56,47,97,84,72,30.23,30.12,20,8,20,0.00
2013-12-22,76,65,58,69,63,58,100,94,75,30.20,30.09,26,8,26,0.06
2013-12-24,27,26,25,17,16,16,71,67,64,30.61,30.59,10,5,18,0.00
2013-12-25,35,26,22,23,20,15,96,77,53,30.66,30.42,8,2,14,0.06
2013-12-26,44,33,23,33,27,22,97,81,45,30.46,30.34,12,2,18,0.00
2013-12-27,49,35,23,32,27,22,98,76,39,30.56,30.46,12,2,12,0.00
2013-12-28,56,44,36,36,33,28,88,67,35,30.48,30.27,18,5,18,0.00
2013-12-29,60,49,43,60,47,35,100,93,57,30.27,29.63,29,8,29,0.39
2013-12-30,51,42,36,47,39,28,100,88,72,30.27,29.95,13,4,13,0.00
2013-12-31,46,37,26,37,29,24,94,74,64,30.46,30.24,20,5,20,0.00
2014-1-1,50,35,24,40,31,22,98,85,58,30.55,30.27,12,2,12,0.00
2014-1-2,45,39,34,43,38,33,99,94,76,30.27,29.62,12,2,12,0.46